Aviation Digital Data Service (ADDS)

Output produced by METARs form (0722 UTC 24 April 2014)
found at http://aviationweather.gov/adds/metars/
 
KAEX 240653Z 13005KT 7SM CLR 17/16 A2987 RMK AO2 SLP119 T01670156